Solicitamos su permiso para obtener datos estadísticos de su navegación en esta web, en cumplimiento del Real Decreto-ley 13/2012. Si continúa navegando consideramos que acepta el uso de cookies. OK | Más información

AIRPORT MAP

METAR AND TAF INFORMATION

METAR FOR LEZL
ADDS - METARS form results

(1732 UTC 21 November 2017)
Data provider http://aviationweather.gov/adds/metars/
 
METAR text: LEZL 211700Z VRB02KT CAVOK 22/02 Q1018 NOSIG
Conditions at: LEZL (SEVILLA (CIV/MIL, ES) observed 1700 UTC 21 November 2017
Temperature: 22.0°C (72°F)
Dewpoint: 2.0°C (36°F) [RH = 27%]
Pressure (altimeter): 30.06 inches Hg (1018.0 mb)
Winds: variable direction winds at 2 MPH (2 knots; 1.0 m/s)
Visibility: 6 or more miles (10+ km)
Ceiling: ceiling and visibility are OK
Clouds: unknown
Weather: no significant weather observed at this time

Forecast for: LEZL (SEVILLA (CIV/MIL, ES)
Text: TAF LEZL 211400Z 2115/2215 04004KT CAVOK TX24/2115Z TN06/2206Z
Forecast period: 1500 UTC 21 November 2017 to 1500 UTC 22 November 2017
Forecast type: FROM: standard forecast or significant change
Winds: from the NE (40 degrees) at 5 MPH (4 knots; 2.1 m/s)
Visibility: 6 or more miles (10+ km)
Clouds: not forecast
Weather: no significant weather forecast for this period

}